createdAt,value
2023-02-15T00:00:55.254Z,18.07
2023-02-15T00:03:26.304Z,17.23
2023-02-15T00:05:59.991Z,16.10
2023-02-15T00:08:27.594Z,16.97
2023-02-15T00:11:08.343Z,17.20
2023-02-15T00:13:36.460Z,18.23
2023-02-15T00:16:04.639Z,17.00
2023-02-15T00:18:33.707Z,16.33
2023-02-15T00:21:06.369Z,16.30
2023-02-15T00:23:35.181Z,16.10
2023-02-15T00:26:11.884Z,15.93
2023-02-15T00:28:38.423Z,18.97
2023-02-15T00:31:10.254Z,16.93
2023-02-15T00:33:40.081Z,15.33
2023-02-15T00:36:10.450Z,17.20
2023-02-15T00:38:44.464Z,17.50
2023-02-15T00:41:15.558Z,16.67
2023-02-15T00:43:45.946Z,16.87
2023-02-15T00:46:16.425Z,15.87
2023-02-15T00:48:46.913Z,17.83
2023-02-15T00:51:17.511Z,15.90
2023-02-15T00:53:47.437Z,15.67
2023-02-15T00:56:21.969Z,12.97
2023-02-15T00:58:52.165Z,16.70
2023-02-15T01:01:23.695Z,15.50
2023-02-15T01:03:53.329Z,16.43
2023-02-15T01:06:23.212Z,14.40
2023-02-15T01:08:53.502Z,15.13
2023-02-15T01:11:23.746Z,15.20
2023-02-15T01:13:58.286Z,13.83
2023-02-15T01:16:28.575Z,14.40
2023-02-15T01:18:58.453Z,14.00
2023-02-15T01:21:29.534Z,13.40
2023-02-15T01:24:01.341Z,14.57
2023-02-15T01:26:30.239Z,13.30
2023-02-15T01:29:01.036Z,11.90
2023-02-15T01:31:34.097Z,15.13
2023-02-15T01:34:04.000Z,12.10
2023-02-15T01:36:34.412Z,16.50
2023-02-15T01:39:04.194Z,14.73
2023-02-15T01:41:34.675Z,13.20
2023-02-15T01:44:43.595Z,14.20
2023-02-15T01:47:23.636Z,16.30
2023-02-15T01:49:59.309Z,14.80
2023-02-15T01:52:30.337Z,15.53
2023-02-15T01:55:02.552Z,14.20
2023-02-15T01:57:34.197Z,15.03
2023-02-15T02:00:10.302Z,14.10
2023-02-15T02:02:42.780Z,15.30
2023-02-15T02:05:13.199Z,13.73
2023-02-15T02:07:42.701Z,15.30
2023-02-15T02:10:20.546Z,13.43
2023-02-15T02:12:55.067Z,14.67
2023-02-15T02:15:40.398Z,12.80
2023-02-15T02:18:27.639Z,14.37
2023-02-15T02:21:49.726Z,13.90
2023-02-15T02:24:39.378Z,12.97
2023-02-15T02:27:24.512Z,15.40
2023-02-15T02:30:25.053Z,13.07
2023-02-15T02:33:19.320Z,12.57
2023-02-15T02:36:09.220Z,14.80
2023-02-15T02:38:49.450Z,14.17
2023-02-15T02:41:44.530Z,12.67
2023-02-15T02:44:23.951Z,12.33
2023-02-15T02:47:13.358Z,13.10
2023-02-15T02:49:44.589Z,13.10
2023-02-15T02:52:38.938Z,12.00
2023-02-15T02:55:32.199Z,10.30
2023-02-15T02:58:14.932Z,11.10
2023-02-15T03:01:06.267Z,12.20
2023-02-15T03:03:39.174Z,11.63
2023-02-15T03:06:18.986Z,11.60
2023-02-15T03:09:02.042Z,12.90
2023-02-15T03:11:32.694Z,11.10
2023-02-15T03:14:03.472Z,13.90
2023-02-15T03:16:34.003Z,12.60
2023-02-15T03:19:10.017Z,13.03
2023-02-15T03:21:57.799Z,12.00
2023-02-15T03:24:27.387Z,11.77
2023-02-15T03:26:54.942Z,12.40
2023-02-15T03:29:28.296Z,11.17
2023-02-15T03:31:58.826Z,12.97
2023-02-15T03:34:25.644Z,11.00
2023-02-15T03:37:11.744Z,11.50
2023-02-15T03:39:47.212Z,11.00
2023-02-15T03:42:19.834Z,12.03
2023-02-15T03:45:00.136Z,11.93
2023-02-15T03:47:37.861Z,13.03
2023-02-15T03:50:45.696Z,12.33
2023-02-15T03:53:21.952Z,12.30
2023-02-15T03:55:55.938Z,11.17
2023-02-15T03:58:45.868Z,12.80
2023-02-15T04:01:59.944Z,12.03
2023-02-15T04:04:33.190Z,11.60
2023-02-15T04:06:59.758Z,12.67
2023-02-15T04:09:44.303Z,10.07
2023-02-15T04:12:15.751Z,11.40
2023-02-15T04:15:05.527Z,11.77
2023-02-15T04:17:31.665Z,11.53
2023-02-15T04:20:19.999Z,12.13
2023-02-15T04:23:08.876Z,9.93
2023-02-15T04:25:39.391Z,11.17
2023-02-15T04:28:10.222Z,13.53
2023-02-15T04:30:40.583Z,13.23
2023-02-15T04:33:11.600Z,11.70
2023-02-15T04:35:45.265Z,11.50
2023-02-15T04:38:15.974Z,12.07
2023-02-15T04:40:52.203Z,11.80
2023-02-15T04:43:23.255Z,11.60
2023-02-15T04:45:53.942Z,11.23
2023-02-15T04:48:29.651Z,11.67
2023-02-15T04:51:06.669Z,12.40
2023-02-15T04:53:37.414Z,12.47
2023-02-15T04:56:12.429Z,11.60
2023-02-15T04:58:43.188Z,12.13
2023-02-15T05:01:14.972Z,11.73
2023-02-15T05:03:49.729Z,10.97
2023-02-15T05:06:20.120Z,12.30
2023-02-15T05:08:51.205Z,12.83
2023-02-15T05:11:22.254Z,14.40
2023-02-15T05:13:53.008Z,12.83
2023-02-15T05:16:25.780Z,11.57
2023-02-15T05:18:57.215Z,12.15
2023-02-15T05:21:29.115Z,11.30
2023-02-15T05:23:59.750Z,9.60
2023-02-15T05:26:48.938Z,10.10
2023-02-15T05:29:15.456Z,9.07
2023-02-15T05:31:47.544Z,11.23
2023-02-15T05:34:17.103Z,11.63
2023-02-15T05:36:48.097Z,8.97
2023-02-15T05:39:19.373Z,11.47
2023-02-15T05:41:48.899Z,10.80
2023-02-15T05:44:19.209Z,10.40
2023-02-15T05:46:49.847Z,10.60
2023-02-15T05:49:20.127Z,10.70
2023-02-15T05:51:50.871Z,11.00
2023-02-15T05:54:22.240Z,9.10
2023-02-15T05:56:53.486Z,10.20
2023-02-15T05:59:24.332Z,9.60
2023-02-15T06:01:55.088Z,10.03
2023-02-15T06:04:26.872Z,10.50
2023-02-15T06:06:56.446Z,11.00
2023-02-15T06:09:26.831Z,8.20
2023-02-15T06:11:57.048Z,9.70
2023-02-15T06:14:27.651Z,9.43
2023-02-15T06:16:57.841Z,8.90
2023-02-15T06:19:28.079Z,10.40
2023-02-15T06:22:00.988Z,10.63
2023-02-15T06:24:30.819Z,8.33
2023-02-15T06:27:01.211Z,10.40
2023-02-15T06:29:32.373Z,10.30
2023-02-15T06:32:03.314Z,10.47
2023-02-15T06:34:33.559Z,10.33
2023-02-15T06:37:03.985Z,11.53
2023-02-15T06:39:37.815Z,10.80
2023-02-15T06:42:08.393Z,9.63
2023-02-15T06:44:38.706Z,11.13
2023-02-15T06:47:09.182Z,11.27
2023-02-15T06:49:39.794Z,10.03
2023-02-15T06:52:10.055Z,9.70
2023-02-15T06:54:40.371Z,10.70
2023-02-15T06:57:14.280Z,11.93
2023-02-15T06:59:45.107Z,10.37
2023-02-15T07:02:15.826Z,10.17
2023-02-15T07:04:46.173Z,11.30
2023-02-15T07:07:16.502Z,8.77
2023-02-15T07:09:47.053Z,11.53
2023-02-15T07:12:36.282Z,10.63
2023-02-15T07:15:07.881Z,10.73
2023-02-15T07:17:36.505Z,10.80
2023-02-15T07:20:05.253Z,11.10
2023-02-15T07:22:39.425Z,9.27
2023-02-15T07:25:07.349Z,12.00
2023-02-15T07:27:33.922Z,8.60
2023-02-15T07:30:00.594Z,10.23
2023-02-15T07:32:35.436Z,11.10
2023-02-15T07:35:04.060Z,9.80
2023-02-15T07:37:33.662Z,10.50
2023-02-15T07:40:04.912Z,10.03
2023-02-15T07:42:34.393Z,9.10
2023-02-15T07:45:05.333Z,10.60
2023-02-15T07:47:34.865Z,9.47
2023-02-15T07:50:08.527Z,9.27
2023-02-15T07:52:38.214Z,8.10
2023-02-15T07:55:09.164Z,9.17
2023-02-15T07:57:42.457Z,9.27
2023-02-15T08:00:09.586Z,9.60
2023-02-15T08:02:40.473Z,9.20
2023-02-15T08:05:10.583Z,8.60
2023-02-15T08:07:45.235Z,10.30
2023-02-15T08:10:35.208Z,8.27
2023-02-15T08:13:01.255Z,11.83
2023-02-15T08:15:31.864Z,9.20
2023-02-15T08:17:58.038Z,9.03
2023-02-15T08:20:24.222Z,9.90
2023-02-15T08:22:50.459Z,9.73
2023-02-15T08:25:25.236Z,8.80
2023-02-15T08:27:55.087Z,10.03
2023-02-15T08:30:25.868Z,8.90
2023-02-15T08:32:55.872Z,10.03
2023-02-15T08:35:26.148Z,10.90
2023-02-15T08:37:56.384Z,10.80
2023-02-15T08:40:27.099Z,10.47
2023-02-15T08:43:03.094Z,9.87
2023-02-15T08:45:33.840Z,10.80
2023-02-15T08:48:03.904Z,9.43
2023-02-15T08:50:34.293Z,9.47
2023-02-15T08:53:05.238Z,8.93
2023-02-15T08:55:35.740Z,9.53
2023-02-15T08:58:06.168Z,9.27
2023-02-15T09:00:40.149Z,9.63
2023-02-15T09:03:10.206Z,10.93
2023-02-15T09:05:41.253Z,11.37
2023-02-15T09:08:11.592Z,11.20
2023-02-15T09:10:42.076Z,12.03
2023-02-15T09:13:11.754Z,8.53
2023-02-15T09:15:41.963Z,10.67
2023-02-15T09:18:17.401Z,10.47
2023-02-15T09:20:45.620Z,11.30
2023-02-15T09:23:26.366Z,10.80
2023-02-15T09:26:09.220Z,10.20
2023-02-15T09:28:35.560Z,11.00
2023-02-15T09:31:29.128Z,9.93
2023-02-15T09:34:01.607Z,11.13
2023-02-15T09:36:33.149Z,11.30
2023-02-15T09:39:11.405Z,11.97
2023-02-15T09:41:44.820Z,8.10
2023-02-15T09:44:38.436Z,11.77
2023-02-15T09:47:45.902Z,11.20
2023-02-15T09:50:36.712Z,10.23
2023-02-15T09:53:29.949Z,10.50
2023-02-15T09:55:59.097Z,11.20
2023-02-15T09:58:55.952Z,10.80
2023-02-15T10:01:45.286Z,11.53
2023-02-15T10:04:25.023Z,10.47
2023-02-15T10:06:57.152Z,11.47
2023-02-15T10:09:30.489Z,11.37
2023-02-15T10:12:14.291Z,11.27
2023-02-15T10:15:00.506Z,12.33
2023-02-15T10:18:08.887Z,9.10
2023-02-15T10:20:58.051Z,10.23
2023-02-15T10:23:43.095Z,12.13
2023-02-15T10:26:20.705Z,12.00
2023-02-15T10:28:56.534Z,12.03
2023-02-15T10:32:14.857Z,12.47
2023-02-15T10:35:06.567Z,11.30
2023-02-15T10:38:02.783Z,11.80
2023-02-15T10:41:01.255Z,9.97
2023-02-15T10:43:45.544Z,11.80
2023-02-15T10:46:14.776Z,8.40
2023-02-15T10:48:53.096Z,12.20
2023-02-15T10:51:40.688Z,13.00
2023-02-15T10:54:14.163Z,11.20
2023-02-15T10:57:03.973Z,10.70
2023-02-15T10:59:57.739Z,10.60
2023-02-15T11:02:34.776Z,12.87
2023-02-15T11:05:19.343Z,19.40
2023-02-15T11:07:53.423Z,13.70
2023-02-15T11:11:02.354Z,12.30
2023-02-15T11:13:36.020Z,13.23
2023-02-15T11:16:17.649Z,10.93
2023-02-15T11:18:57.673Z,11.83
2023-02-15T11:21:32.846Z,10.00
2023-02-15T11:24:15.319Z,11.87
2023-02-15T11:26:58.056Z,11.60
2023-02-15T11:29:37.093Z,10.50
2023-02-15T11:32:28.888Z,12.83
2023-02-15T11:35:12.116Z,13.10
2023-02-15T11:38:02.254Z,13.37
2023-02-15T11:40:43.020Z,12.17
2023-02-15T11:43:18.284Z,11.40
2023-02-15T11:45:49.401Z,10.53
2023-02-15T11:48:19.924Z,11.83
2023-02-15T11:50:50.345Z,12.20
2023-02-15T11:53:25.104Z,10.90
2023-02-15T11:55:52.224Z,10.77
2023-02-15T11:58:42.993Z,12.27
2023-02-15T12:01:34.623Z,13.27
2023-02-15T12:04:24.659Z,11.23
2023-02-15T12:07:04.986Z,12.23
2023-02-15T12:09:41.987Z,8.70
2023-02-15T12:12:26.353Z,12.50
2023-02-15T12:14:59.044Z,11.50
2023-02-15T12:17:33.367Z,12.27
2023-02-15T12:20:07.359Z,11.77
2023-02-15T12:22:37.751Z,12.30
2023-02-15T12:25:23.602Z,12.40
2023-02-15T12:27:54.176Z,11.80
2023-02-15T12:30:34.444Z,13.03
2023-02-15T12:33:15.811Z,12.20
2023-02-15T12:35:50.043Z,11.57
2023-02-15T12:38:25.657Z,11.37
2023-02-15T12:41:00.894Z,11.23
2023-02-15T12:43:32.108Z,8.63
2023-02-15T12:46:14.895Z,12.37
2023-02-15T12:48:46.383Z,10.20
2023-02-15T12:51:15.486Z,11.77
2023-02-15T12:53:44.740Z,11.70
2023-02-15T12:56:26.748Z,12.53
2023-02-15T12:59:05.051Z,13.73
2023-02-15T13:01:32.597Z,14.40
2023-02-15T13:04:25.007Z,10.00
2023-02-15T13:07:00.595Z,13.67
2023-02-15T13:09:31.470Z,10.10
2023-02-15T13:12:18.498Z,11.13
2023-02-15T13:14:55.377Z,12.70
2023-02-15T13:17:29.775Z,14.10
2023-02-15T13:20:23.117Z,13.97
2023-02-15T13:23:06.624Z,10.97
2023-02-15T13:25:50.487Z,13.00
2023-02-15T13:28:24.803Z,13.63
2023-02-15T13:30:57.135Z,13.10
2023-02-15T13:33:33.881Z,9.87
2023-02-15T13:36:08.027Z,14.17
2023-02-15T13:38:58.451Z,12.53
2023-02-15T13:42:11.578Z,13.60
2023-02-15T13:45:01.418Z,13.53
2023-02-15T13:47:37.912Z,11.47
2023-02-15T13:50:13.791Z,13.10
2023-02-15T13:52:51.631Z,13.77
2023-02-15T13:55:37.297Z,13.20
2023-02-15T13:58:19.105Z,11.20
2023-02-15T14:01:15.998Z,13.67
2023-02-15T14:04:16.522Z,11.37
2023-02-15T14:07:27.125Z,13.40
2023-02-15T14:10:19.494Z,13.83
2023-02-15T14:13:15.509Z,12.30
2023-02-15T14:16:33.647Z,13.33
2023-02-15T14:19:09.075Z,14.90
2023-02-15T14:21:41.192Z,12.33
2023-02-15T14:24:13.318Z,15.43
2023-02-15T14:27:10.041Z,14.13
2023-02-15T14:29:45.904Z,15.20
2023-02-15T14:32:17.252Z,11.57
2023-02-15T14:34:51.094Z,15.40
2023-02-15T14:37:24.772Z,13.03
2023-02-15T14:40:51.072Z,16.17
2023-02-15T14:43:45.591Z,14.10
2023-02-15T14:46:27.013Z,16.70
2023-02-15T14:49:18.527Z,14.90
2023-02-15T14:51:56.821Z,16.33
2023-02-15T14:54:22.827Z,15.87
2023-02-15T14:57:01.142Z,16.47
2023-02-15T14:59:53.196Z,14.47
2023-02-15T15:02:23.576Z,16.07
2023-02-15T15:05:01.151Z,15.00
2023-02-15T15:07:35.211Z,14.23
2023-02-15T15:10:30.196Z,14.70
2023-02-15T15:12:57.431Z,14.20
2023-02-15T15:15:32.494Z,15.03
2023-02-15T15:18:05.597Z,15.50
2023-02-15T15:20:57.913Z,15.10
2023-02-15T15:23:44.514Z,14.87
2023-02-15T15:26:33.498Z,15.03
2023-02-15T15:29:00.960Z,16.40
2023-02-15T15:31:51.424Z,15.20
2023-02-15T15:34:32.880Z,15.73
2023-02-15T15:37:36.635Z,16.00
2023-02-15T15:40:25.464Z,15.73
2023-02-15T15:43:33.067Z,15.20
2023-02-15T15:46:07.080Z,16.17
2023-02-15T15:48:38.423Z,17.67
2023-02-15T15:51:33.444Z,16.23
2023-02-15T15:54:00.575Z,16.87
2023-02-15T15:56:31.513Z,16.70
2023-02-15T15:59:03.227Z,13.80
2023-02-15T16:01:31.649Z,17.67
2023-02-15T16:03:59.256Z,16.67
2023-02-15T16:06:29.912Z,15.87
2023-02-15T16:08:56.118Z,14.73
2023-02-15T16:11:27.656Z,16.17
2023-02-15T16:13:54.263Z,16.73
2023-02-15T16:16:22.970Z,15.33
2023-02-15T16:18:49.546Z,16.40
2023-02-15T16:21:22.023Z,14.77
2023-02-15T16:24:03.492Z,18.50
2023-02-15T16:26:54.246Z,12.37
2023-02-15T16:29:31.531Z,16.10
2023-02-15T16:32:17.584Z,16.47
2023-02-15T16:34:57.539Z,17.30
2023-02-15T16:37:27.451Z,14.77
2023-02-15T16:39:55.334Z,18.10
2023-02-15T16:42:21.951Z,15.40
2023-02-15T16:45:09.849Z,17.30
2023-02-15T16:47:41.470Z,21.23
2023-02-15T16:50:18.154Z,18.77
2023-02-15T16:52:44.622Z,18.23
2023-02-15T16:55:23.535Z,17.80
2023-02-15T16:57:49.880Z,19.17
2023-02-15T17:00:21.606Z,19.07
2023-02-15T17:03:13.955Z,18.43
2023-02-15T17:05:39.961Z,17.73
2023-02-15T17:08:14.721Z,17.67
2023-02-15T17:10:45.229Z,18.17
2023-02-15T17:13:16.173Z,18.80
2023-02-15T17:15:58.343Z,16.17
2023-02-15T17:18:25.009Z,13.27
2023-02-15T17:20:52.915Z,16.90
2023-02-15T17:23:23.251Z,14.90
2023-02-15T17:25:49.482Z,17.03
2023-02-15T17:28:20.681Z,18.70
2023-02-15T17:30:47.518Z,17.83
2023-02-15T17:33:29.261Z,19.30
2023-02-15T17:36:22.768Z,19.00
2023-02-15T17:39:05.495Z,19.27
2023-02-15T17:41:37.549Z,17.27
2023-02-15T17:44:04.272Z,19.87
2023-02-15T17:46:35.489Z,19.90
2023-02-15T17:49:01.926Z,20.93
2023-02-15T17:51:28.132Z,21.23
2023-02-15T17:54:12.715Z,22.00
2023-02-15T17:56:39.222Z,21.00
2023-02-15T17:59:06.913Z,22.80
2023-02-15T18:01:57.555Z,21.53
2023-02-15T18:04:42.778Z,21.17
2023-02-15T18:07:30.294Z,19.00
2023-02-15T18:10:14.665Z,19.20
2023-02-15T18:12:41.699Z,20.90
2023-02-15T18:15:10.270Z,21.93
2023-02-15T18:17:45.442Z,22.27
2023-02-15T18:20:17.528Z,23.17
2023-02-15T18:22:45.679Z,20.93
2023-02-15T18:25:13.731Z,20.70
2023-02-15T18:27:39.803Z,21.63
2023-02-15T18:30:07.785Z,22.17
2023-02-15T18:32:35.918Z,20.87
2023-02-15T18:35:02.974Z,16.07
2023-02-15T18:37:32.316Z,21.00
2023-02-15T18:39:59.775Z,21.00
2023-02-15T18:42:27.129Z,22.37
2023-02-15T18:44:59.621Z,18.37
2023-02-15T18:47:26.421Z,17.93
2023-02-15T18:49:52.629Z,19.90
2023-02-15T18:52:21.487Z,21.57
2023-02-15T18:54:51.174Z,22.40
2023-02-15T18:57:17.220Z,20.27
2023-02-15T18:59:43.366Z,20.70
2023-02-15T19:02:17.920Z,20.97
2023-02-15T19:04:44.871Z,23.40
2023-02-15T19:07:20.480Z,17.93
2023-02-15T19:09:49.773Z,22.60
2023-02-15T19:12:15.853Z,22.53
2023-02-15T19:14:41.943Z,25.00
2023-02-15T19:17:16.103Z,22.20
2023-02-15T19:19:42.743Z,21.97
2023-02-15T19:22:30.252Z,23.80
2023-02-15T19:24:59.138Z,21.80
2023-02-15T19:27:34.271Z,22.47
2023-02-15T19:30:03.465Z,18.87
2023-02-15T19:32:30.449Z,20.03
2023-02-15T19:34:56.841Z,23.47
2023-02-15T19:37:27.539Z,22.97
2023-02-15T19:39:53.853Z,19.10
2023-02-15T19:42:22.687Z,23.87
2023-02-15T19:44:50.139Z,22.77
2023-02-15T19:47:16.725Z,24.00
2023-02-15T19:49:42.845Z,22.53
2023-02-15T19:52:19.682Z,24.07
2023-02-15T19:54:47.437Z,21.30
2023-02-15T19:57:13.760Z,24.30
2023-02-15T19:59:40.137Z,22.33
2023-02-15T20:02:06.702Z,23.70
2023-02-15T20:04:33.001Z,23.33
2023-02-15T20:07:01.006Z,23.97
2023-02-15T20:09:32.051Z,20.10
2023-02-15T20:11:57.953Z,23.33
2023-02-15T20:14:23.792Z,21.33
2023-02-15T20:16:49.703Z,22.63
2023-02-15T20:19:15.736Z,19.67
2023-02-15T20:21:42.984Z,24.37
2023-02-15T20:24:19.845Z,22.87
2023-02-15T20:26:45.681Z,22.30
2023-02-15T20:29:17.714Z,23.30
2023-02-15T20:31:44.271Z,22.97
2023-02-15T20:34:10.596Z,15.63
2023-02-15T20:36:36.970Z,22.93
2023-02-15T20:39:12.004Z,22.63
2023-02-15T20:41:46.290Z,22.00
2023-02-15T20:44:26.320Z,23.33
2023-02-15T20:46:57.111Z,21.20
2023-02-15T20:49:24.479Z,22.20
2023-02-15T20:51:51.669Z,21.97
2023-02-15T20:54:19.366Z,21.40
2023-02-15T20:56:46.083Z,22.70
2023-02-15T20:59:33.295Z,18.50
2023-02-15T21:02:01.698Z,20.77
2023-02-15T21:04:36.638Z,23.83
2023-02-15T21:07:02.668Z,26.00
2023-02-15T21:09:28.848Z,21.77
2023-02-15T21:11:56.084Z,23.57
2023-02-15T21:14:23.662Z,21.40
2023-02-15T21:16:50.251Z,20.27
2023-02-15T21:19:19.245Z,22.50
2023-02-15T21:21:45.981Z,20.10
2023-02-15T21:24:18.611Z,23.83
2023-02-15T21:26:45.631Z,21.50
2023-02-15T21:29:19.102Z,19.70
2023-02-15T21:31:45.555Z,24.87
2023-02-15T21:34:12.105Z,19.57
2023-02-15T21:36:39.551Z,24.83
2023-02-15T21:39:05.966Z,25.00
2023-02-15T21:41:50.421Z,23.37
2023-02-15T21:44:43.670Z,25.80
2023-02-15T21:47:50.945Z,23.87
2023-02-15T21:50:37.620Z,23.50
2023-02-15T21:53:04.733Z,23.20
2023-02-15T21:55:31.226Z,23.90
2023-02-15T21:57:57.066Z,23.10
2023-02-15T22:00:24.165Z,23.23
2023-02-15T22:02:54.911Z,24.07
2023-02-15T22:05:28.476Z,24.43
2023-02-15T22:07:54.748Z,23.03
2023-02-15T22:10:22.730Z,24.83
2023-02-15T22:12:49.446Z,22.63
2023-02-15T22:15:20.231Z,26.27
2023-02-15T22:17:46.475Z,19.30
2023-02-15T22:20:19.862Z,23.90
2023-02-15T22:22:46.763Z,23.70
2023-02-15T22:25:14.861Z,17.67
2023-02-15T22:27:42.209Z,23.57
2023-02-15T22:30:28.667Z,23.93
2023-02-15T22:32:56.165Z,22.73
2023-02-15T22:35:28.263Z,24.10
2023-02-15T22:37:54.735Z,22.07
2023-02-15T22:40:21.526Z,23.57
2023-02-15T22:42:49.468Z,22.97
2023-02-15T22:45:18.034Z,23.47
2023-02-15T22:47:44.315Z,21.57
2023-02-15T22:50:21.957Z,24.73
2023-02-15T22:52:48.794Z,23.67
2023-02-15T22:55:20.988Z,23.20
2023-02-15T22:57:49.063Z,21.13
2023-02-15T23:00:17.683Z,24.17
2023-02-15T23:02:44.011Z,24.43
2023-02-15T23:05:28.426Z,24.53
2023-02-15T23:07:54.897Z,24.13
2023-02-15T23:10:22.919Z,19.27
2023-02-15T23:13:10.519Z,22.97
2023-02-15T23:15:36.987Z,21.70
2023-02-15T23:18:18.603Z,25.27
2023-02-15T23:20:46.364Z,20.60
2023-02-15T23:23:13.401Z,19.83
2023-02-15T23:25:39.808Z,21.20
2023-02-15T23:28:24.172Z,24.83
2023-02-15T23:30:50.069Z,23.07
2023-02-15T23:33:18.784Z,21.87
2023-02-15T23:35:44.656Z,22.67
2023-02-15T23:38:39.719Z,24.93
2023-02-15T23:41:20.896Z,23.30
2023-02-15T23:43:49.656Z,19.20
2023-02-15T23:46:26.885Z,19.57
2023-02-15T23:48:53.432Z,24.90
2023-02-15T23:51:21.328Z,24.50
2023-02-15T23:53:47.162Z,22.50
2023-02-15T23:56:13.444Z,23.20
2023-02-15T23:58:41.184Z,22.83
